Aérodrome :
LOGIN :

S'inscrire | Disclaimer

   EN    FR    IT 

 










Légende :    VFR   VFR Marginal   IFR   IFR Intensif   IFR Très Intensif
Visi : 
Plafond : 
>= 8 km
>= 3000ft
5 à 8 km
1000 à 3000 ft
1500m à 5 km
500 à 1000 ft
800 à 1500m
200 à 500 ft
< 800m
< 200 ft
Symboles :   Orages  Brouillard  Fortes neiges  Fortes précipitations  Vent > 20 kt
SIGMETs :   Divers  Orages  Givrage  Turbulence  Onde Orograph.  Cendres Volcan.







- Altitude de l'aérodrome : 72 ft
- Code IATA : UDE


EHVK - Volkel Airbase

DERNIER METAR :
  • 172055Z AUTO 26008KT 9999 FEW062 01/M00 Q1011 BLU 29010KT 9999 SCT025 TEMPO 3000 SHRASN SCT005 BKN007 SCT015CB

METARs EXPIRÉS :
  • 172025Z AUTO 27007KT 9999 NCD 01/M00 Q1010 BLU 29010KT 9999 SCT025 TEMPO 3000 SHRASN SCT005 BKN007 SCT015CB
  • 171955Z AUTO 28009KT 250V320 9999 FEW044 BKN094 BKN120 01/M00 Q1010 BLU 29010KT 9999 SCT025 TEMPO 3000 SHRASN SCT005 BKN007 SCT015CB
  • 171939Z AUTO 29009KT 260V330 9999 FEW066 SCT095 BKN100 01/M00 Q1010 BLU 29008KT 9999 SCT020 TEMPO 3000 SHRASN SCT005 BKN007 SCT015CB
  • 171926Z AUTO 29009KT 250V340 9999 -SN FEW010 FEW015CB SCT025 BKN032 01/00 Q1009 BLU 29008KT 9999 SCT020 TEMPO 3000 SHRASN SCT005 BKN007 SCT015CB
  • 171925Z AUTO 29010KT 250V340 6000 -SNRA FEW009 FEW015CB SCT018 BKN023 01/00 Q1009 WHT 29008KT 9999 SCT020 TEMPO 3000 SHRASN SCT005 BKN007 SCT015CB
  • 171855Z AUTO 27006KT 250V310 9999 NCD 01/00 Q1009 BLU 29008KT 9999 SCT020 TEMPO 3000 SHRASN SCT005 BKN007 SCT015CB
  • 171825Z AUTO 27006KT 9999 FEW042 01/00 Q1008 BLU 29008KT 9999 SCT020 BKN030 TEMPO 30012G22KT 3000 SHRASN SCT005 BKN007 SCT015CB
  • 171814Z AUTO 27006KT 9999 FEW004 01/01 Q1008 BLU 29008KT 9999 SCT020 BKN030 TEMPO 30012G22KT 3000 SHRASN SCT005 BKN007 SCT015CB

TAF TAF EHVK
Valide du 17 à 18h jusqu'au 18 à 06h UTC


171719Z 1718/1806 29009KT 9999 BKN006 SCT040
BECMG 1718/1719 SCT013
TEMPO 1718/1721 30013G23KT 4500 SHRAGS SCT006 SCT016CB BKN020
PROB30
TEMPO 1718/1721 2500 SHRAGS SHRASN SCT005 SCT014CB BKN020
BECMG 1800/1803 26004KT 4500 BR
PROB30 1803/1806 2000
Pas de NOTAMs connus pour ce terrain.



MET'MAP, la Météo Aéronautique d'un coup d'oeil ! - Copyright ORBIFLY Décembre 2007 - Disclaimer

ORBIFLY MET'MAP TEAM :

Programmation & Développement : Alexandra Zaïnal
Conception & Développement : Baudouin d'Aumeries
Co-Programmation & Développement : Marc-Olivier Méhu
Soutien technique & logistique : Manuel Goepfert

Contact : metmap@orbifly.com




SOURCES & CREDITS :

   NOAA